Time;durP1;ratioP1;P1;durP2;ratioP2;P2;SDS_P1;SDS_P2;PMS_P1;PMS_P2;Temp;Humidity;BMP_temperature;BMP_pressure;BME280_temperature;BME280_humidity;BME280_pressure;Samples;Min_cycle;Max_cycle;Signal;HPM_P1;HPM_P2
2023/02/09 00:01:07;;;;;;;;;;;;;;;29.03;63.20;100922.50;5094276;27;66022;-34
2023/02/09 00:03:39;;;;;;;;;;;;;;;29.08;63.84;100925.47;5099229;27;70234;-33
2023/02/09 00:06:11;;;;;;;;;;;;;;;29.09;64.52;100922.56;5092522;27;66686;-34
2023/02/09 00:08:41;;;;;;;;;;;;;;;29.11;64.82;100923.19;5094643;27;70307;-35
2023/02/09 00:14:18;;;;;;;;;;;;;;;29.17;64.94;100929.63;5094303;27;70312;-35
2023/02/09 00:16:50;;;;;;;;;;;;;;;29.22;65.83;100935.22;5099866;27;66607;-35
2023/02/09 00:19:20;;;;;;;;;;;;;;;29.23;65.97;100934.22;5086623;27;70191;-36
2023/02/09 00:21:51;;;;;;;;;;;;;;;29.25;66.05;100936.69;5093020;27;66244;-39
2023/02/09 00:24:21;;;;;;;;;;;;;;;29.26;65.62;100939.19;5091443;27;69823;-33
2023/02/09 00:26:51;;;;;;;;;;;;;;;29.27;65.89;100957.06;5097240;27;67183;-34
2023/02/09 00:29:22;;;;;;;;;;;;;;;29.29;65.98;100954.97;5094688;27;68642;-35
2023/02/09 00:31:53;;;;;;;;;;;;;;;29.30;66.24;100956.63;5096843;27;67026;-34
2023/02/09 00:34:23;;;;;;;;;;;;;;;29.30;66.00;100956.63;5056437;27;70051;-38
2023/02/09 00:36:55;;;;;;;;;;;;;;;29.32;65.72;100959.16;5096446;27;67190;-35
2023/02/09 00:39:25;;;;;;;;;;;;;;;29.33;66.07;100961.63;5081100;27;70311;-34
2023/02/09 00:42:09;;;;;;;;;;;;;;;29.33;66.39;100967.03;5091235;27;67301;-34
2023/02/09 00:44:40;;;;;;;;;;;;;;;29.34;66.88;100976.81;5092264;27;71028;-35
2023/02/09 00:47:10;;;;;;;;;;;;;;;29.36;67.08;100985.56;5093200;27;66606;-34
2023/02/09 00:49:40;;;;;;;;;;;;;;;29.38;67.18;100986.16;5094061;27;68999;-36
2023/02/09 00:52:11;;;;;;;;;;;;;;;29.07;66.96;100950.81;5063133;27;66289;-32
2023/02/09 00:54:41;;;;;;;;;;;;;;;29.42;66.27;100988.44;5093465;27;69940;-34
2023/02/09 00:57:11;;;;;;;;;;;;;;;29.43;66.37;101003.63;5094771;27;66902;-33
2023/02/09 00:59:45;;;;;;;;;;;;;;;29.46;66.06;100995.09;5094374;27;62392;-33
2023/02/09 01:02:15;;;;;;;;;;;;;;;29.45;65.79;100999.69;5075052;27;65364;-34
2023/02/09 01:04:45;;;;;;;;;;;;;;;29.44;65.71;101000.69;5083962;27;70101;-35
2023/02/09 01:07:16;;;;;;;;;;;;;;;29.45;65.68;101012.34;5089699;27;66772;-33
2023/02/09 01:09:46;;;;;;;;;;;;;;;29.39;64.78;101014.00;5096115;27;70667;-34
2023/02/09 01:12:16;;;;;;;;;;;;;;;29.40;64.31;101015.69;5098573;27;66913;-33
2023/02/09 01:14:46;;;;;;;;;;;;;;;29.42;63.36;101020.88;5059749;27;69799;-34
2023/02/09 01:17:16;;;;;;;;;;;;;;;29.45;63.33;101024.00;5095308;27;65722;-33
2023/02/09 01:19:50;;;;;;;;;;;;;;;29.47;63.11;101021.91;5077505;27;69687;-34
2023/02/09 01:22:20;;;;;;;;;;;;;;;29.51;62.59;101027.75;5079596;27;66263;-34
2023/02/09 01:24:50;;;;;;;;;;;;;;;29.53;62.63;101020.25;5092135;27;68816;-33
2023/02/09 01:27:20;;;;;;;;;;;;;;;29.54;62.50;101028.16;5101247;27;66500;-33
2023/02/09 01:29:50;;;;;;;;;;;;;;;29.56;62.02;101030.63;5096034;27;69960;-34
2023/02/09 01:32:20;;;;;;;;;;;;;;;29.58;61.75;101033.97;5079116;27;66710;-34
2023/02/09 01:34:51;;;;;;;;;;;;;;;29.59;61.61;101038.34;5074498;27;69742;-33
2023/02/09 01:37:22;;;;;;;;;;;;;;;29.60;61.42;101040.84;5073829;27;67371;-33
2023/02/09 01:39:52;;;;;;;;;;;;;;;29.62;61.20;101035.22;5065537;27;70969;-36
2023/02/09 01:42:22;;;;;;;;;;;;;;;29.64;61.19;101049.38;5098071;27;66504;-38
2023/02/09 01:45:11;;;;;;;;;;;;;;;29.65;61.00;101039.44;5074468;27;69866;-33
2023/02/09 01:47:43;;;;;;;;;;;;;;;29.68;61.42;101050.66;5080739;27;66883;-35
2023/02/09 01:50:14;;;;;;;;;;;;;;;29.69;60.73;101056.88;5079610;27;70426;-33
2023/02/09 01:52:45;;;;;;;;;;;;;;;29.71;60.60;101055.63;5098551;27;65935;-38
2023/02/09 01:55:19;;;;;;;;;;;;;;;29.72;60.59;101062.69;5095838;27;70412;-35
2023/02/09 01:58:07;;;;;;;;;;;;;;;29.73;60.83;101064.38;5099797;27;65300;-34
2023/02/09 02:00:38;;;;;;;;;;;;;;;29.74;60.77;101071.44;5098394;27;71897;-34
2023/02/09 02:03:11;;;;;;;;;;;;;;;29.75;60.14;101062.28;5063703;27;66144;-34
2023/02/09 02:05:43;;;;;;;;;;;;;;;29.77;60.23;101071.03;5098349;27;69649;-33
2023/02/09 02:08:16;;;;;;;;;;;;;;;29.78;60.19;101075.41;5081200;27;65386;-33
2023/02/09 02:10:46;;;;;;;;;;;;;;;29.82;60.38;101078.50;5066213;27;68279;-34
2023/02/09 02:13:17;;;;;;;;;;;;;;;29.83;60.40;101090.97;5094335;27;65320;-35
2023/02/09 02:15:50;;;;;;;;;;;;;;;29.84;59.74;101077.28;5098470;27;69723;-33
2023/02/09 02:18:40;;;;;;;;;;;;;;;29.87;60.07;101075.19;5098625;27;66490;-34
2023/02/09 02:21:14;;;;;;;;;;;;;;;29.89;59.91;101079.31;5091521;27;70086;-34
2023/02/09 02:23:44;;;;;;;;;;;;;;;29.91;60.09;101076.44;5098437;27;66616;-33
2023/02/09 02:26:20;;;;;;;;;;;;;;;29.91;59.41;101079.97;5098036;27;70266;-33
2023/02/09 02:29:09;;;;;;;;;;;;;;;29.94;59.32;101076.00;5076796;27;66412;-35
2023/02/09 02:31:54;;;;;;;;;;;;;;;29.96;59.32;101079.34;5077453;27;70079;-32
2023/02/09 02:34:36;;;;;;;;;;;;;;;29.98;59.25;101069.16;5094317;27;66791;-34
2023/02/09 02:37:18;;;;;;;;;;;;;;;30.00;59.24;101075.16;5091360;27;70273;-33
2023/02/09 02:40:06;;;;;;;;;;;;;;;30.02;59.14;101070.38;5093853;27;66197;-33
2023/02/09 02:42:48;;;;;;;;;;;;;;;30.04;59.39;101071.00;5094562;27;70309;-33
2023/02/09 02:45:21;;;;;;;;;;;;;;;30.06;59.12;101063.50;5099233;27;66280;-34
2023/02/09 02:48:17;;;;;;;;;;;;;;;30.08;59.19;101064.13;5094646;27;69266;-33
2023/02/09 02:50:53;;;;;;;;;;;;;;;30.10;59.16;101062.06;5096786;27;65741;-33
2023/02/09 02:53:27;;;;;;;;;;;;;;;30.12;58.55;101062.69;5098104;27;70791;-35
2023/02/09 02:56:01;;;;;;;;;;;;;;;30.14;58.88;101060.56;5099574;27;66676;-34
2023/02/09 02:58:32;;;;;;;;;;;;;;;30.16;58.38;101058.50;5085382;27;70472;-34
2023/02/09 03:01:03;;;;;;;;;;;;;;;30.18;58.41;101064.53;5088179;27;65318;-33
2023/02/09 03:03:35;;;;;;;;;;;;;;;30.21;58.40;101066.81;5096329;27;70372;-38
2023/02/09 03:06:07;;;;;;;;;;;;;;;30.22;58.78;101060.38;5094837;27;66452;-34
2023/02/09 03:08:46;;;;;;;;;;;;;;;30.26;58.12;101064.34;5097314;27;70262;-35
2023/02/09 03:11:18;;;;;;;;;;;;;;;30.27;58.26;101055.16;5092840;27;67061;-33
2023/02/09 03:13:48;;;;;;;;;;;;;;;30.31;58.36;101060.16;5097778;27;69194;-34
2023/02/09 03:16:47;;;;;;;;;;;;;;;30.33;58.15;101058.06;5102044;27;66173;-34
2023/02/09 03:19:30;;;;;;;;;;;;;;;30.35;58.07;101050.59;5072981;27;70110;-35
2023/02/09 03:22:03;;;;;;;;;;;;;;;30.37;57.86;101048.47;5099856;27;66048;-35
2023/02/09 03:24:41;;;;;;;;;;;;;;;30.40;58.22;101053.50;5103017;27;70585;-34
2023/02/09 03:27:17;;;;;;;;;;;;;;;30.42;57.55;101040.56;5102152;27;67025;-33
2023/02/09 03:29:49;;;;;;;;;;;;;;;30.44;57.73;101050.13;5098631;27;69840;-34
2023/02/09 03:32:20;;;;;;;;;;;;;;;30.47;57.59;101052.41;5100815;27;66325;-33
2023/02/09 03:34:51;;;;;;;;;;;;;;;30.50;57.93;101048.44;5092953;27;70408;-34
2023/02/09 03:37:22;;;;;;;;;;;;;;;30.53;57.73;101052.59;5099523;27;65805;-35
2023/02/09 03:39:52;;;;;;;;;;;;;;;30.54;57.29;101046.97;5099935;27;69383;-34
2023/02/09 03:42:22;;;;;;;;;;;;;;;30.57;57.30;101046.53;5092418;27;65648;-36
2023/02/09 03:44:52;;;;;;;;;;;;;;;30.59;57.21;101032.78;5101103;27;69728;-34
2023/02/09 03:47:23;;;;;;;;;;;;;;;30.61;57.26;101028.00;5097567;27;66462;-34
2023/02/09 03:49:53;;;;;;;;;;;;;;;30.42;57.32;100997.25;5099587;27;70572;-36
2023/02/09 03:52:23;;;;;;;;;;;;;;;30.65;57.10;101029.25;5098626;27;67061;-37
2023/02/09 03:54:53;;;;;;;;;;;;;;;30.66;57.38;101025.47;5100597;27;69417;-36
2023/02/09 03:57:24;;;;;;;;;;;;;;;30.68;56.70;101012.56;5095449;27;66124;-35
2023/02/09 03:59:54;;;;;;;;;;;;;;;30.68;56.72;101013.38;5097951;27;69427;-35
2023/02/09 04:02:25;;;;;;;;;;;;;;;30.70;56.81;101016.72;5093161;27;67733;-35
2023/02/09 04:04:55;;;;;;;;;;;;;;;30.72;57.15;100998.34;5098110;27;70167;-35
2023/02/09 04:07:26;;;;;;;;;;;;;;;30.73;56.97;101005.44;5096748;27;66465;-35
2023/02/09 04:09:56;;;;;;;;;;;;;;;30.76;56.60;100997.91;5097564;27;70420;-33
2023/02/09 04:12:26;;;;;;;;;;;;;;;30.77;56.72;100989.59;5097013;27;68566;-34
2023/02/09 04:14:57;;;;;;;;;;;;;;;30.80;56.35;100985.66;5100730;27;70443;-33
2023/02/09 04:17:27;;;;;;;;;;;;;;;30.82;56.57;100983.56;5100741;27;66105;-38
2023/02/09 04:19:58;;;;;;;;;;;;;;;30.83;56.51;100977.09;5081428;27;70545;-34
2023/02/09 04:22:28;;;;;;;;;;;;;;;30.87;56.51;100972.88;5101820;27;65850;-37
2023/02/09 04:24:58;;;;;;;;;;;;;;;30.88;56.51;100971.84;5078093;27;68914;-33
2023/02/09 04:27:28;;;;;;;;;;;;;;;30.90;56.05;100972.47;5095454;27;66624;-34
2023/02/09 04:29:58;;;;;;;;;;;;;;;30.92;56.58;100964.94;5097600;27;70233;-34
2023/02/09 04:32:29;;;;;;;;;;;;;;;30.94;56.16;100968.25;5099470;27;66417;-35
2023/02/09 04:34:59;;;;;;;;;;;;;;;30.96;56.52;100958.03;5098503;27;69187;-35
2023/02/09 04:37:29;;;;;;;;;;;;;;;30.97;56.13;100953.44;5084442;27;66245;-34
2023/02/09 04:39:59;;;;;;;;;;;;;;;31.00;55.84;100940.28;5101469;27;70094;-35
2023/02/09 04:42:33;;;;;;;;;;;;;;;31.02;56.20;100938.19;5098907;27;66525;-34
2023/02/09 04:45:04;;;;;;;;;;;;;;;31.02;55.58;100932.78;5099188;27;70453;-34
2023/02/09 04:47:34;;;;;;;;;;;;;;;31.03;55.78;100926.28;5097902;27;66607;-33
2023/02/09 04:50:04;;;;;;;;;;;;;;;31.05;55.62;100920.69;5098657;27;70758;-33
2023/02/09 04:52:34;;;;;;;;;;;;;;;31.05;55.65;100916.06;5081098;27;65353;-37
2023/02/09 04:55:05;;;;;;;;;;;;;;;31.07;56.06;100914.00;5087195;27;70308;-34
2023/02/09 05:00:24;;;;;;;;;;;;;;;31.09;55.50;100908.31;5096025;27;70610;-35
2023/02/09 05:02:54;;;;;;;;;;;;;;;31.11;55.59;100898.94;5094940;27;65958;-35
2023/02/09 05:05:24;;;;;;;;;;;;;;;31.13;55.30;100899.53;5098464;27;69818;-34
2023/02/09 05:07:54;;;;;;;;;;;;;;;31.14;55.58;100893.06;5079394;27;66472;-35
2023/02/09 05:10:25;;;;;;;;;;;;;;;31.15;55.91;100892.03;5080048;27;70693;-34
2023/02/09 05:12:55;;;;;;;;;;;;;;;31.16;55.30;100882.84;5088687;27;66525;-34
2023/02/09 05:15:25;;;;;;;;;;;;;;;31.19;55.77;100875.34;5094314;27;70014;-36
2023/02/09 05:17:56;;;;;;;;;;;;;;;31.20;55.40;100868.84;5092564;27;66351;-35
2023/02/09 05:20:26;;;;;;;;;;;;;;;31.22;55.21;100872.16;5089501;27;68894;-34
2023/02/09 05:22:56;;;;;;;;;;;;;;;31.24;55.29;100853.81;5089483;27;66426;-35
2023/02/09 05:25:26;;;;;;;;;;;;;;;31.25;54.93;100855.47;5078082;27;70506;-35
2023/02/09 05:27:56;;;;;;;;;;;;;;;31.28;55.05;100855.84;5077340;27;66175;-36
2023/02/09 05:30:27;;;;;;;;;;;;;;;31.30;55.16;100844.78;5090380;27;70637;-35
2023/02/09 05:32:57;;;;;;;;;;;;;;;31.31;55.16;100841.84;5094720;27;66177;-34
2023/02/09 05:35:27;;;;;;;;;;;;;;;31.33;54.72;100837.03;5094488;27;70314;-34
2023/02/09 05:37:57;;;;;;;;;;;;;;;31.35;54.90;100840.34;5093683;27;65516;-32
2023/02/09 05:40:27;;;;;;;;;;;;;;;31.36;55.00;100819.53;5099102;27;69813;-35
2023/02/09 05:42:58;;;;;;;;;;;;;;;31.36;55.02;100819.53;5094213;27;67112;-35
2023/02/09 05:45:28;;;;;;;;;;;;;;;31.39;55.13;100814.47;5096321;27;69355;-37
2023/02/09 05:47:58;;;;;;;;;;;;;;;31.43;54.69;100809.44;5093983;27;66236;-34
2023/02/09 05:50:29;;;;;;;;;;;;;;;31.45;54.51;100809.19;5097342;27;69067;-33
2023/02/09 05:52:59;;;;;;;;;;;;;;;31.47;55.00;100799.78;5079210;27;67715;-34
2023/02/09 05:55:29;;;;;;;;;;;;;;;31.51;54.33;100795.59;5069802;28;70314;-34
2023/02/09 05:57:59;;;;;;;;;;;;;;;31.53;54.40;100789.91;5067184;28;66853;-36
2023/02/09 06:00:29;;;;;;;;;;;;;;;31.54;54.61;100778.88;5074090;28;70546;-34
2023/02/09 06:02:59;;;;;;;;;;;;;;;31.59;54.64;100780.88;5071763;28;66209;-34
2023/02/09 06:05:29;;;;;;;;;;;;;;;31.60;54.26;100766.28;5077873;28;69830;-34
2023/02/09 06:07:59;;;;;;;;;;;;;;;31.62;54.45;100769.56;5075387;27;66889;-35
2023/02/09 06:10:30;;;;;;;;;;;;;;;31.65;54.42;100758.28;5073059;28;70554;-34
2023/02/09 06:13:00;;;;;;;;;;;;;;;31.69;54.33;100753.22;5078864;27;66715;-36
2023/02/09 06:15:30;;;;;;;;;;;;;;;31.70;54.27;100749.44;5073631;28;69570;-37
2023/02/09 06:18:01;;;;;;;;;;;;;;;31.72;54.01;100748.16;5075914;27;66084;-34
2023/02/09 06:20:31;;;;;;;;;;;;;;;31.75;53.93;100746.88;5068147;28;70438;-33
2023/02/09 06:23:01;;;;;;;;;;;;;;;31.77;53.71;100734.75;5075860;27;66026;-35
2023/02/09 06:25:31;;;;;;;;;;;;;;;31.79;53.81;100726.41;5071586;28;70274;-35
2023/02/09 06:28:02;;;;;;;;;;;;;;;31.82;53.62;100728.66;5075422;28;66758;-36
2023/02/09 06:30:32;;;;;;;;;;;;;;;31.84;53.67;100718.38;5077660;28;70210;-35
2023/02/09 06:33:03;;;;;;;;;;;;;;;31.86;53.51;100716.25;5077886;28;66581;-34
2023/02/09 06:35:33;;;;;;;;;;;;;;;31.88;53.63;100708.72;5068843;27;70453;-35
2023/02/09 06:38:03;;;;;;;;;;;;;;;31.91;53.67;100708.28;5071744;27;67149;-33
2023/02/09 06:40:33;;;;;;;;;;;;;;;31.93;53.29;100695.34;5071606;27;69154;-34
2023/02/09 06:43:04;;;;;;;;;;;;;;;31.97;53.10;100695.69;5072595;28;66633;-33
2023/02/09 06:45:37;;;;;;;;;;;;;;;31.99;53.29;100688.97;5075644;28;70545;-35
2023/02/09 06:48:08;;;;;;;;;;;;;;;32.01;53.26;100681.44;5067829;28;66263;-35
2023/02/09 06:50:38;;;;;;;;;;;;;;;32.04;53.32;100678.25;5075595;27;70168;-33
2023/02/09 06:53:09;;;;;;;;;;;;;;;32.07;53.46;100676.13;5089475;27;66552;-34
2023/02/09 06:55:39;;;;;;;;;;;;;;;32.10;53.32;100675.69;5095182;27;70455;-35
2023/02/09 06:58:10;;;;;;;;;;;;;;;32.13;53.12;100670.59;5085677;27;67020;-34
2023/02/09 07:00:40;;;;;;;;;;;;;;;32.16;53.12;100672.84;5098103;27;70351;-35
2023/02/09 07:03:10;;;;;;;;;;;;;;;32.20;52.86;100662.34;5096753;27;66468;-35
2023/02/09 07:05:41;;;;;;;;;;;;;;;32.22;52.91;100661.03;5079528;27;70540;-34
2023/02/09 07:08:11;;;;;;;;;;;;;;;32.27;52.52;100657.63;5097029;27;66682;-32
2023/02/09 07:10:42;;;;;;;;;;;;;;;32.30;52.67;100646.31;5080968;27;70657;-33
2023/02/09 07:13:12;;;;;;;;;;;;;;;32.34;52.48;100642.03;5087965;27;65904;-33
2023/02/09 07:15:42;;;;;;;;;;;;;;;32.38;52.51;100643.25;5073418;27;69310;-36
2023/02/09 07:18:12;;;;;;;;;;;;;;;32.41;52.40;100637.34;5100804;27;66648;-33
2023/02/09 07:20:43;;;;;;;;;;;;;;;32.43;52.37;100635.22;5095624;27;69886;-33
2023/02/09 07:23:14;;;;;;;;;;;;;;;32.48;52.06;100639.94;5076698;27;66687;-33
2023/02/09 07:25:44;;;;;;;;;;;;;;;32.52;52.14;100629.47;5097641;27;69770;-34
2023/02/09 07:28:14;;;;;;;;;;;;;;;32.55;52.18;100637.13;5097342;27;66802;-33
2023/02/09 07:30:48;;;;;;;;;;;;;;;32.59;51.94;100632.84;5095300;27;70783;-33
2023/02/09 07:33:20;;;;;;;;;;;;;;;32.64;51.94;100627.53;5074166;27;66972;-34
2023/02/09 07:35:50;;;;;;;;;;;;;;;32.67;51.84;100624.34;5100216;27;69196;-33
2023/02/09 07:38:21;;;;;;;;;;;;;;;32.72;51.67;100613.59;5085274;27;66436;-33
2023/02/09 07:40:51;;;;;;;;;;;;;;;32.76;51.58;100605.78;5092021;27;69832;-33
2023/02/09 07:43:21;;;;;;;;;;;;;;;32.79;51.48;100606.16;5102429;27;67295;-34
2023/02/09 07:45:51;;;;;;;;;;;;;;;32.83;51.26;100609.22;5059511;28;69853;-34
2023/02/09 07:48:24;;;;;;;;;;;;;;;32.86;51.30;100606.81;5090490;27;66666;-35
2023/02/09 07:50:54;;;;;;;;;;;;;;;32.88;51.06;100604.69;5098506;27;70432;-33
2023/02/09 07:53:24;;;;;;;;;;;;;;;32.92;51.20;100618.63;5100144;27;65552;-33
2023/02/09 07:55:55;;;;;;;;;;;;;;;32.96;51.06;100608.09;5098990;27;70656;-33
2023/02/09 07:58:25;;;;;;;;;;;;;;;32.98;50.96;100603.25;5101229;27;66316;-34
2023/02/09 08:01:01;;;;;;;;;;;;;;;33.03;50.94;100606.09;5092013;27;68274;-37
2023/02/09 08:03:34;;;;;;;;;;;;;;;33.07;50.82;100607.25;5084842;27;65524;-37
2023/02/09 08:06:17;;;;;;;;;;;;;;;33.12;50.79;100610.06;5099800;27;70411;-34
2023/02/09 08:08:49;;;;;;;;;;;;;;;33.18;50.55;100597.41;5099110;27;65473;-35
2023/02/09 08:11:23;;;;;;;;;;;;;;;33.22;50.48;100598.59;5091323;27;70928;-35
2023/02/09 08:13:55;;;;;;;;;;;;;;;33.27;50.55;100598.69;5099706;27;65651;-38
2023/02/09 08:16:28;;;;;;;;;;;;;;;33.29;50.35;100600.09;5097078;27;70802;-37
2023/02/09 08:19:04;;;;;;;;;;;;;;;33.33;50.60;100605.88;5076444;27;64793;-35
2023/02/09 08:21:37;;;;;;;;;;;;;;;33.38;50.29;100603.25;5073987;27;69531;-33
2023/02/09 08:24:09;;;;;;;;;;;;;;;33.42;50.42;100609.00;5094197;27;67121;-34
2023/02/09 08:26:39;;;;;;;;;;;;;;;33.45;50.25;100608.53;5094514;27;70785;-34
2023/02/09 08:29:10;;;;;;;;;;;;;;;33.48;50.32;100608.84;5098840;27;66722;-34
2023/02/09 08:31:41;;;;;;;;;;;;;;;33.52;50.53;100603.75;5100663;27;69139;-35
2023/02/09 08:34:12;;;;;;;;;;;;;;;33.53;50.26;100600.00;5094114;27;66486;-34
2023/02/09 08:36:42;;;;;;;;;;;;;;;33.55;50.34;100597.88;5100511;27;70255;-34
2023/02/09 08:39:12;;;;;;;;;;;;;;;33.36;51.07;100598.03;5096690;27;66063;-34
2023/02/09 08:41:43;;;;;;;;;;;;;;;33.25;52.22;100604.34;5074620;27;69976;-35
2023/02/09 08:44:17;;;;;;;;;;;;;;;33.17;52.80;100604.75;5094482;27;66170;-36
2023/02/09 08:46:47;;;;;;;;;;;;;;;33.13;52.90;100601.69;5093357;27;69156;-33
2023/02/09 08:49:19;;;;;;;;;;;;;;;33.17;52.77;100601.22;5091475;27;65846;-34
2023/02/09 08:51:49;;;;;;;;;;;;;;;33.18;52.22;100603.66;5088879;27;71277;-34
2023/02/09 08:54:19;;;;;;;;;;;;;;;33.20;52.46;100601.53;5097380;27;65531;-33
2023/02/09 08:56:49;;;;;;;;;;;;;;;33.23;52.57;100605.66;5091609;27;69504;-35
2023/02/09 08:59:20;;;;;;;;;;;;;;;33.24;52.11;100605.44;5094719;27;67341;-34
2023/02/09 09:01:52;;;;;;;;;;;;;;;33.26;52.76;100608.72;5095515;27;70000;-33
2023/02/09 09:04:22;;;;;;;;;;;;;;;33.26;53.21;100606.00;5092867;27;68215;-33
2023/02/09 09:06:53;;;;;;;;;;;;;;;33.25;52.75;100615.22;5098516;27;70410;-35
2023/02/09 09:09:24;;;;;;;;;;;;;;;33.18;52.36;100608.28;5099937;27;66243;-32
2023/02/09 09:11:54;;;;;;;;;;;;;;;32.77;52.07;100553.13;5098097;27;70301;-33
2023/02/09 09:14:25;;;;;;;;;;;;;;;33.14;52.27;100616.09;5099006;27;67007;-34
2023/02/09 09:16:58;;;;;;;;;;;;;;;33.15;52.55;100615.03;5098246;27;69726;-34
2023/02/09 09:19:29;;;;;;;;;;;;;;;33.20;53.33;100614.31;5098716;27;65456;-35
2023/02/09 09:22:01;;;;;;;;;;;;;;;33.17;52.27;100615.63;5091436;27;69801;-35
2023/02/09 09:24:31;;;;;;;;;;;;;;;33.20;52.86;100617.03;5093742;27;65690;-35
2023/02/09 09:27:02;;;;;;;;;;;;;;;33.21;51.84;100614.09;5088668;27;69815;-33
2023/02/09 09:29:33;;;;;;;;;;;;;;;33.23;52.80;100613.81;5071634;27;66369;-34
2023/02/09 09:32:03;;;;;;;;;;;;;;;33.22;52.65;100615.72;5093315;27;69308;-34
2023/02/09 09:34:34;;;;;;;;;;;;;;;33.21;52.94;100624.94;5089930;27;65910;-35
2023/02/09 09:37:04;;;;;;;;;;;;;;;33.18;52.65;100606.38;5088141;27;69751;-35
2023/02/09 09:39:35;;;;;;;;;;;;;;;33.24;52.56;100619.03;5093076;27;66972;-34
2023/02/09 09:42:05;;;;;;;;;;;;;;;33.19;52.82;100610.78;5091853;27;70530;-34
2023/02/09 09:44:42;;;;;;;;;;;;;;;33.20;52.56;100617.84;5092433;27;65892;-35
2023/02/09 09:47:17;;;;;;;;;;;;;;;33.19;52.02;100632.50;5090085;27;70615;-35
2023/02/09 09:49:47;;;;;;;;;;;;;;;33.16;52.79;100633.00;5093557;27;67068;-35
2023/02/09 09:52:30;;;;;;;;;;;;;;;33.13;53.37;100628.06;5078507;27;70247;-35
2023/02/09 09:55:02;;;;;;;;;;;;;;;33.09;54.34;100637.75;5092580;27;66675;-36
2023/02/09 09:57:37;;;;;;;;;;;;;;;33.05;56.16;100636.59;5096977;27;70160;-34
2023/02/09 10:00:19;;;;;;;;;;;;;;;33.04;56.35;100635.75;5089416;27;66190;-34
2023/02/09 10:02:49;;;;;;;;;;;;;;;33.02;56.92;100640.59;5088862;27;70635;-35
2023/02/09 10:05:27;;;;;;;;;;;;;;;33.04;57.03;100645.78;5090246;27;66370;-37
2023/02/09 10:08:04;;;;;;;;;;;;;;;33.00;57.29;100644.63;5097379;27;69981;-38
2023/02/09 10:10:35;;;;;;;;;;;;;;;32.98;58.78;100652.16;5098257;27;66338;-34
2023/02/09 10:13:22;;;;;;;;;;;;;;;32.99;58.83;100653.78;5095655;27;70356;-38
2023/02/09 10:15:56;;;;;;;;;;;;;;;32.98;59.32;100652.16;5091702;27;65697;-37
2023/02/09 10:18:28;;;;;;;;;;;;;;;32.96;59.03;100657.00;5068073;27;70244;-40
2023/02/09 10:21:05;;;;;;;;;;;;;;;32.88;59.05;100669.91;5091089;27;65969;-34
2023/02/09 10:23:56;;;;;;;;;;;;;;;32.60;58.70;100626.38;5077762;27;70088;-36
2023/02/09 10:26:30;;;;;;;;;;;;;;;32.77;58.54;100667.22;5061488;27;67035;-37
2023/02/09 10:29:10;;;;;;;;;;;;;;;32.68;58.47;100670.28;5089301;27;70756;-34
2023/02/09 10:31:49;;;;;;;;;;;;;;;32.67;58.35;100667.81;5092642;27;67009;-38
2023/02/09 10:34:21;;;;;;;;;;;;;;;32.62;58.29;100673.13;5091535;27;72167;-43
2023/02/09 10:36:52;;;;;;;;;;;;;;;32.59;58.20;100676.31;5080048;27;65564;-37
2023/02/09 10:39:33;;;;;;;;;;;;;;;32.58;58.23;100688.25;5091745;27;70304;-35
2023/02/09 10:42:13;;;;;;;;;;;;;;;32.52;58.24;100687.31;5094361;27;65541;-35
2023/02/09 10:44:46;;;;;;;;;;;;;;;32.54;57.96;100687.91;5096582;27;69903;-35
2023/02/09 10:47:19;;;;;;;;;;;;;;;32.53;57.60;100694.38;5098165;27;66989;-34
2023/02/09 10:49:52;;;;;;;;;;;;;;;32.51;57.54;100695.66;5094459;27;69480;-35
2023/02/09 10:52:23;;;;;;;;;;;;;;;32.47;57.44;100706.19;5096258;27;66348;-35
2023/02/09 10:54:56;;;;;;;;;;;;;;;32.44;56.98;100699.28;5096331;27;69845;-38
2023/02/09 10:57:28;;;;;;;;;;;;;;;32.43;56.65;100700.38;5092865;27;66267;-34
2023/02/09 11:00:02;;;;;;;;;;;;;;;32.40;56.74;100705.41;5089169;27;69895;-35
2023/02/09 11:02:37;;;;;;;;;;;;;;;32.41;56.32;100705.19;5095369;27;65746;-36
2023/02/09 11:05:27;;;;;;;;;;;;;;;32.44;56.45;100710.16;5095827;27;70396;-36
2023/02/09 11:08:04;;;;;;;;;;;;;;;32.46;56.14;100715.41;5091827;27;67057;-35
2023/02/09 11:10:38;;;;;;;;;;;;;;;32.43;56.29;100713.94;5091222;27;70405;-38
2023/02/09 11:13:20;;;;;;;;;;;;;;;32.44;56.00;100718.31;5094901;27;66662;-38
2023/02/09 11:16:01;;;;;;;;;;;;;;;32.43;55.91;100722.09;5085298;27;70563;-35
2023/02/09 11:18:33;;;;;;;;;;;;;;;32.40;55.94;100733.41;5096924;27;66700;-34
2023/02/09 11:21:14;;;;;;;;;;;;;;;32.39;56.06;100733.66;5093421;27;69781;-34
2023/02/09 11:24:08;;;;;;;;;;;;;;;32.49;55.95;100729.31;5087335;27;66048;-37
2023/02/09 11:26:45;;;;;;;;;;;;;;;32.65;55.28;100732.38;5066840;27;70062;-36
2023/02/09 11:29:26;;;;;;;;;;;;;;;32.74;54.19;100741.84;5094454;27;67590;-39
2023/02/09 11:32:16;;;;;;;;;;;;;;;32.80;53.98;100740.91;5093275;27;70030;-39
2023/02/09 11:34:46;;;;;;;;;;;;;;;32.86;53.64;100748.09;5081010;27;66580;-38
2023/02/09 11:37:29;;;;;;;;;;;;;;;32.89;53.64;100742.19;5097404;27;69950;-36
2023/02/09 11:40:19;;;;;;;;;;;;;;;32.92;53.40;100758.00;5094748;27;66241;-37
2023/02/09 11:43:01;;;;;;;;;;;;;;;32.71;53.35;100720.59;5063798;27;69925;-39
2023/02/09 11:45:48;;;;;;;;;;;;;;;32.97;53.96;100756.47;5069536;27;66691;-37
2023/02/09 11:48:29;;;;;;;;;;;;;;;32.71;53.87;100723.31;5091463;27;71226;-35
2023/02/09 11:51:08;;;;;;;;;;;;;;;32.98;53.99;100766.28;5094611;27;66392;-37
2023/02/09 11:53:44;;;;;;;;;;;;;;;32.72;55.18;100773.84;5075142;27;69996;-40
2023/02/09 11:56:16;;;;;;;;;;;;;;;32.62;55.54;100773.59;5093443;27;66113;-38
2023/02/09 11:58:52;;;;;;;;;;;;;;;32.51;55.94;100783.38;5089161;27;70047;-39
2023/02/09 12:01:32;;;;;;;;;;;;;;;32.43;56.32;100787.25;5094895;27;66453;-38
2023/02/09 12:04:02;;;;;;;;;;;;;;;32.38;56.42;100792.53;5087882;27;70570;-39
2023/02/09 12:06:36;;;;;;;;;;;;;;;32.37;56.28;100790.03;5087295;27;66049;-36
2023/02/09 12:09:26;;;;;;;;;;;;;;;32.33;56.65;100786.97;5092051;27;70057;-37
2023/02/09 12:12:04;;;;;;;;;;;;;;;32.31;56.64;100799.94;5093561;27;65501;-38
2023/02/09 12:14:43;;;;;;;;;;;;;;;32.26;56.61;100797.09;5096989;27;70257;-40
2023/02/09 12:17:20;;;;;;;;;;;;;;;32.28;56.48;100806.66;5088445;27;66379;-37
2023/02/09 12:19:56;;;;;;;;;;;;;;;32.24;56.51;100805.50;5072884;27;70406;-37
2023/02/09 12:22:32;;;;;;;;;;;;;;;32.23;56.54;100813.84;5091492;27;65074;-40
2023/02/09 12:25:16;;;;;;;;;;;;;;;32.21;56.61;100813.28;5095956;27;70167;-36
2023/02/09 12:28:05;;;;;;;;;;;;;;;32.21;56.91;100826.84;5094753;27;65397;-38
2023/02/09 12:30:42;;;;;;;;;;;;;;;32.19;56.78;100824.34;5094164;27;69120;-37
2023/02/09 12:33:22;;;;;;;;;;;;;;;32.15;56.65;100825.88;5070037;27;66274;-40
2023/02/09 12:36:01;;;;;;;;;;;;;;;32.15;57.03;100830.47;5095475;27;70517;-35
2023/02/09 12:38:45;;;;;;;;;;;;;;;32.11;56.44;100829.28;5093641;27;65515;-36
2023/02/09 12:41:50;;;;;;;;;;;;;;;32.07;56.37;100837.06;5090482;27;69870;-39
2023/02/09 12:44:21;;;;;;;;;;;;;;;32.07;57.78;100841.63;5076821;27;65412;-36
2023/02/09 12:46:54;;;;;;;;;;;;;;;32.07;58.01;100841.63;5071889;27;69842;-39
2023/02/09 12:49:27;;;;;;;;;;;;;;;32.05;58.07;100845.41;5071287;27;67371;-39
2023/02/09 12:52:01;;;;;;;;;;;;;;;32.03;58.10;100844.81;5092900;27;70628;-36
2023/02/09 12:54:49;;;;;;;;;;;;;;;32.01;57.69;100848.81;5082924;27;66935;-38
2023/02/09 12:57:21;;;;;;;;;;;;;;;32.01;57.67;100865.94;5086729;27;69214;-39
2023/02/09 12:59:58;;;;;;;;;;;;;;;31.98;58.19;100865.53;5088351;27;66381;-39
2023/02/09 13:02:48;;;;;;;;;;;;;;;31.98;58.04;100868.25;5072518;27;68320;-35
2023/02/09 13:05:26;;;;;;;;;;;;;;;31.96;57.65;100871.22;5093574;27;65837;-38
2023/02/09 13:08:28;;;;;;;;;;;;;;;31.95;57.31;100877.69;5096808;27;70601;-39
2023/02/09 13:10:58;;;;;;;;;;;;;;;31.95;57.72;100877.69;5073822;27;65618;-39
2023/02/09 13:13:42;;;;;;;;;;;;;;;31.93;57.23;100882.53;5099093;27;69729;-36